This is the latest recevied weather packets stored in our database for station/object PP5EO-15. If no packets are shown the sender has not sent any weather packets the latest 10 day(s).
| Time | Temp. | Humidity | Pressure | Rain* | Wind** | Luminosity | Snow |
|---|---|---|---|---|---|---|---|
| 1777389032 | 32.78° C | 27% | 1018 hPa | - | - | - | - |
| 1777387678 | 31.11° C | 28% | 1018.2 hPa | - | - | - | - |
| 1777387082 | 31.11° C | 29% | 1018.3 hPa | - | - | - | - |
| 1777386488 | 30.56° C | 29% | 1018.3 hPa | - | - | - | - |
| 1777385892 | 31.11° C | 28% | 1018.5 hPa | - | - | - | - |
| 1777385297 | 31.11° C | 28% | 1018.5 hPa | - | - | - | - |
| 1777384702 | 31.67° C | 27% | 1018.5 hPa | - | - | - | - |
| 1777384107 | 32.22° C | 26% | 1018.6 hPa | - | - | - | - |
| 1777383512 | 32.22° C | 26% | 1018.5 hPa | - | - | - | - |
| 1777382298 | 30.56° C | 29% | 1018.6 hPa | - | - | - | - |
| 1777381703 | 30.56° C | 29% | 1018.7 hPa | - | - | - | - |
| 1777381108 | 30.56° C | 29% | 1018.6 hPa | - | - | - | - |
| 1777380513 | 30.56° C | 31% | 1018.6 hPa | - | - | - | - |
| 1777379918 | 30.56° C | 32% | 1018.5 hPa | - | - | - | - |
| 1777379324 | 30.56° C | 32% | 1018.4 hPa | - | - | - | - |
| 1777378161 | 28.33° C | 37% | 1018.3 hPa | - | - | - | - |
| 1777377567 | 28.33° C | 37% | 1018.3 hPa | - | - | - | - |
| 1777376971 | 28.33° C | 37% | 1018.2 hPa | - | - | - | - |
| 1777376376 | 28.33° C | 43% | 1018.1 hPa | - | - | - | - |
| 1777375781 | 28.33° C | 45% | 1018 hPa | - | - | - | - |
| 1777375186 | 28.33° C | 45% | 1017.7 hPa | - | - | - | - |
| 1777374591 | 27.78° C | 44% | 1017.2 hPa | - | - | - | - |
| 1777373252 | 27.78° C | 45% | 1017.2 hPa | - | - | - | - |
| 1777372661 | 27.78° C | 45% | 1017.1 hPa | - | - | - | - |
| 1777372062 | 27.78° C | 44% | 1017.1 hPa | - | - | - | - |
* Rain since midnight (hover to see other rain measurements)
** Current wind speed in m/s (hover to see current wind gust speed)